createdAt,value
2023-04-13T00:01:23.932Z,6.90
2023-04-13T00:03:52.318Z,6.90
2023-04-13T00:06:22.840Z,6.90
2023-04-13T00:08:54.851Z,6.90
2023-04-13T00:11:23.113Z,6.90
2023-04-13T00:13:51.179Z,6.90
2023-04-13T00:16:20.653Z,6.90
2023-04-13T00:18:48.719Z,6.90
2023-04-13T00:21:17.540Z,6.80
2023-04-13T00:23:45.788Z,6.80
2023-04-13T00:26:13.901Z,6.80
2023-04-13T00:28:42.384Z,6.80
2023-04-13T00:35:03.104Z,6.70
2023-04-13T00:37:32.704Z,6.70
2023-04-13T00:40:01.169Z,6.70
2023-04-13T00:42:29.219Z,6.70
2023-04-13T00:44:57.324Z,6.70
2023-04-13T00:47:28.039Z,6.60
2023-04-13T00:49:57.146Z,6.60
2023-04-13T00:52:26.652Z,6.60
2023-04-13T00:54:56.363Z,6.50
2023-04-13T00:57:27.252Z,6.50
2023-04-13T00:59:56.042Z,6.50
2023-04-13T01:02:25.770Z,6.50
2023-04-13T01:04:55.925Z,6.50
2023-04-13T01:07:32.478Z,6.50
2023-04-13T01:10:06.998Z,6.50
2023-04-13T01:12:43.003Z,6.50
2023-04-13T01:15:14.395Z,6.50
2023-04-13T01:17:48.290Z,6.50
2023-04-13T01:20:17.910Z,6.50
2023-04-13T01:22:55.910Z,6.60
2023-04-13T01:25:32.759Z,6.60
2023-04-13T01:28:07.435Z,6.60
2023-04-13T01:30:37.744Z,6.60
2023-04-13T01:33:06.621Z,6.60
2023-04-13T01:35:35.055Z,6.60
2023-04-13T01:38:03.367Z,6.60
2023-04-13T01:40:32.892Z,6.70
2023-04-13T01:43:02.535Z,6.70
2023-04-13T01:45:35.547Z,6.70
2023-04-13T01:48:07.742Z,6.70
2023-04-13T01:50:40.552Z,6.70
2023-04-13T01:53:12.799Z,6.80
2023-04-13T01:55:42.093Z,6.80
2023-04-13T01:58:14.579Z,6.80
2023-04-13T02:00:43.473Z,6.80
2023-04-13T02:03:12.675Z,6.80
2023-04-13T02:05:41.594Z,6.80
2023-04-13T02:08:11.589Z,6.80
2023-04-13T02:10:40.030Z,6.80
2023-04-13T02:13:09.553Z,6.80
2023-04-13T02:15:39.510Z,6.80
2023-04-13T02:18:08.561Z,6.80
2023-04-13T02:20:43.788Z,6.80
2023-04-13T02:23:14.885Z,6.90
2023-04-13T02:25:48.024Z,6.90
2023-04-13T02:28:18.029Z,6.90
2023-04-13T02:30:48.140Z,6.90
2023-04-13T02:33:17.137Z,6.90
2023-04-13T02:35:45.563Z,6.90
2023-04-13T02:38:13.793Z,6.90
2023-04-13T02:40:43.157Z,6.90
2023-04-13T02:43:12.278Z,6.90
2023-04-13T02:45:40.680Z,6.90
2023-04-13T02:48:10.633Z,6.90
2023-04-13T02:50:38.693Z,6.90
2023-04-13T02:53:07.846Z,6.90
2023-04-13T02:55:36.694Z,6.90
2023-04-13T02:58:06.269Z,6.90
2023-04-13T03:06:07.012Z,6.70
2023-04-13T03:08:35.133Z,6.70
2023-04-13T03:11:04.016Z,6.60
2023-04-13T03:25:34.137Z,6.40
2023-04-13T03:28:03.794Z,6.30
2023-04-13T03:30:31.970Z,6.30
2023-04-13T03:33:00.109Z,6.20
2023-04-13T03:50:53.148Z,6.00
2023-04-13T03:53:21.324Z,6.00
2023-04-13T03:55:49.412Z,6.00
2023-04-13T03:58:18.223Z,6.00
2023-04-13T04:00:46.369Z,6.10
2023-04-13T04:03:17.523Z,6.20
2023-04-13T04:05:46.482Z,6.20
2023-04-13T04:08:16.084Z,6.20
2023-04-13T04:10:44.246Z,6.20
2023-04-13T04:13:13.508Z,6.20
2023-04-13T04:15:41.620Z,6.20
2023-04-13T04:18:09.791Z,6.20
2023-04-13T04:20:38.260Z,6.10
2023-04-13T04:23:06.369Z,6.10
2023-04-13T04:25:38.091Z,6.10
2023-04-13T04:28:06.495Z,6.00
2023-04-13T04:30:35.189Z,6.00
2023-04-13T04:33:03.393Z,6.10
2023-04-13T04:35:34.294Z,6.10
2023-04-13T04:38:04.391Z,6.10
2023-04-13T04:40:35.917Z,6.00
2023-04-13T04:43:05.867Z,6.00
2023-04-13T04:45:36.298Z,6.00
2023-04-13T04:48:05.600Z,6.00
2023-04-13T04:50:34.474Z,6.00
2023-04-13T04:53:02.838Z,5.90
2023-04-13T04:55:31.139Z,5.90
2023-04-13T04:57:59.219Z,6.00
2023-04-13T05:00:30.990Z,6.10
2023-04-13T05:03:01.004Z,6.10
2023-04-13T05:05:30.294Z,6.10
2023-04-13T05:07:58.476Z,6.10
2023-04-13T05:10:28.365Z,6.10
2023-04-13T05:12:57.025Z,6.10
2023-04-13T05:15:26.760Z,6.20
2023-04-13T05:17:56.307Z,6.40
2023-04-13T05:20:24.432Z,6.50
2023-04-13T05:22:52.829Z,6.70
2023-04-13T05:25:21.199Z,6.70
2023-04-13T05:27:49.231Z,6.90
2023-04-13T05:30:17.686Z,6.90
2023-04-13T05:32:45.789Z,7.00
2023-04-13T05:35:15.234Z,7.00
2023-04-13T05:37:44.618Z,7.20
2023-04-13T05:40:14.792Z,7.30
2023-04-13T05:42:43.765Z,7.40
2023-04-13T05:45:13.237Z,7.40
2023-04-13T05:47:41.419Z,7.40
2023-04-13T05:50:10.571Z,7.40
2023-04-13T05:52:40.074Z,7.40
2023-04-13T05:55:08.627Z,7.30
2023-04-13T05:57:36.807Z,7.30
2023-04-13T06:00:10.471Z,7.30
2023-04-13T06:02:40.445Z,7.30
2023-04-13T06:05:09.248Z,7.30
2023-04-13T06:07:37.443Z,7.30
2023-04-13T06:10:08.187Z,7.30
2023-04-13T06:12:36.260Z,7.40
2023-04-13T06:15:04.878Z,7.40
2023-04-13T06:17:33.131Z,7.50
2023-04-13T06:20:01.406Z,7.50
2023-04-13T06:22:30.983Z,7.50
2023-04-13T06:24:59.081Z,7.50
2023-04-13T06:27:29.307Z,7.40
2023-04-13T06:29:58.193Z,7.40
2023-04-13T06:32:26.399Z,7.30
2023-04-13T06:34:54.525Z,7.30
2023-04-13T06:37:23.405Z,7.30
2023-04-13T06:39:51.622Z,7.20
2023-04-13T06:42:19.967Z,7.20
2023-04-13T06:44:49.404Z,7.10
2023-04-13T06:47:17.584Z,7.00
2023-04-13T06:49:45.956Z,7.00
2023-04-13T06:52:14.487Z,6.90
2023-04-13T06:54:42.589Z,7.00
2023-04-13T06:57:10.688Z,7.10
2023-04-13T06:59:38.766Z,7.10
2023-04-13T07:02:09.664Z,7.10
2023-04-13T07:04:38.287Z,7.20
2023-04-13T07:07:06.531Z,7.20
2023-04-13T07:09:34.645Z,7.30
2023-04-13T07:12:04.996Z,7.40
2023-04-13T07:14:34.917Z,7.50
2023-04-13T07:17:03.049Z,7.60
2023-04-13T07:19:33.475Z,7.70
2023-04-13T07:22:04.456Z,7.90
2023-04-13T07:24:35.922Z,7.90
2023-04-13T07:27:04.361Z,8.00
2023-04-13T07:29:32.487Z,7.90
2023-04-13T07:32:02.346Z,7.80
2023-04-13T07:34:31.969Z,7.60
2023-04-13T07:37:00.020Z,7.60
2023-04-13T07:39:28.372Z,7.60
2023-04-13T07:41:57.241Z,7.60
2023-04-13T07:44:25.513Z,7.60
2023-04-13T07:46:53.670Z,7.60
2023-04-13T07:49:22.777Z,7.70
2023-04-13T07:51:54.467Z,7.60
2023-04-13T07:54:22.949Z,7.60
2023-04-13T07:56:51.062Z,7.60
2023-04-13T07:59:19.141Z,7.60
2023-04-13T08:01:47.236Z,7.70
2023-04-13T08:04:15.768Z,7.70
2023-04-13T08:06:43.974Z,7.80
2023-04-13T08:09:13.489Z,8.10
2023-04-13T08:11:42.876Z,8.60
2023-04-13T08:14:11.914Z,9.70
2023-04-13T08:16:40.099Z,10.20
2023-04-13T08:19:08.769Z,10.40
2023-04-13T08:21:38.675Z,10.30
2023-04-13T08:24:07.516Z,10.30
2023-04-13T08:26:36.969Z,10.90
2023-04-13T08:29:05.091Z,11.80
2023-04-13T08:31:33.342Z,12.10
2023-04-13T08:34:01.490Z,11.70
2023-04-13T08:36:29.595Z,11.30
2023-04-13T08:38:57.891Z,10.90
2023-04-13T08:41:27.731Z,10.60
2023-04-13T08:43:57.708Z,10.20
2023-04-13T08:46:26.157Z,9.80
2023-04-13T08:48:56.024Z,9.60
2023-04-13T08:51:24.817Z,9.60
2023-04-13T08:53:54.799Z,9.50
2023-04-13T08:56:30.951Z,10.00
2023-04-13T08:59:08.216Z,10.60
2023-04-13T09:01:38.700Z,11.00
2023-04-13T09:05:02.259Z,11.10
2023-04-13T09:07:34.844Z,11.00
2023-04-13T09:10:05.984Z,11.10
2023-04-13T09:12:35.016Z,10.80
2023-04-13T09:15:07.220Z,10.80
2023-04-13T09:17:35.664Z,10.70
2023-04-13T09:20:14.573Z,10.90
2023-04-13T09:22:43.068Z,11.20
2023-04-13T09:25:22.427Z,11.70
2023-04-13T09:27:52.061Z,12.50
2023-04-13T09:30:22.774Z,12.80
2023-04-13T09:33:04.265Z,12.50
2023-04-13T09:35:32.748Z,12.40
2023-04-13T09:38:01.040Z,12.10
2023-04-13T09:40:29.387Z,11.70
2023-04-13T09:42:59.175Z,11.50
2023-04-13T09:45:35.085Z,11.10
2023-04-13T09:48:03.705Z,10.80
2023-04-13T09:50:34.002Z,10.70
2023-04-13T09:53:03.070Z,10.50
2023-04-13T09:55:32.817Z,10.30
2023-04-13T09:58:10.970Z,10.20
2023-04-13T10:00:43.090Z,10.20
2023-04-13T10:03:12.829Z,10.20
2023-04-13T10:05:57.665Z,10.30
2023-04-13T10:11:01.384Z,10.40
2023-04-13T10:13:34.199Z,10.50
2023-04-13T10:16:37.858Z,10.70
2023-04-13T10:19:11.382Z,11.10
2023-04-13T10:21:45.228Z,11.50
2023-04-13T10:24:14.629Z,12.20
2023-04-13T10:26:45.174Z,12.70
2023-04-13T10:29:14.646Z,12.70
2023-04-13T10:31:47.194Z,12.70
2023-04-13T10:34:25.503Z,12.50
2023-04-13T10:36:56.251Z,12.20
2023-04-13T10:39:28.300Z,11.50
2023-04-13T10:42:07.751Z,11.10
2023-04-13T10:44:43.470Z,11.10
2023-04-13T10:47:13.538Z,11.40
2023-04-13T10:49:42.725Z,11.50
2023-04-13T10:52:11.824Z,11.50
2023-04-13T10:54:41.270Z,11.70
2023-04-13T10:57:11.302Z,11.80
2023-04-13T10:59:57.088Z,11.80
2023-04-13T11:02:31.770Z,11.90
2023-04-13T11:05:01.162Z,11.80
2023-04-13T11:07:29.780Z,11.90
2023-04-13T11:12:30.618Z,12.20
2023-04-13T11:15:01.392Z,12.20
2023-04-13T11:17:30.911Z,12.40
2023-04-13T11:19:59.330Z,12.60
2023-04-13T11:22:29.047Z,12.60
2023-04-13T11:25:08.557Z,12.60
2023-04-13T11:27:37.978Z,12.80
2023-04-13T11:30:09.907Z,12.90
2023-04-13T11:32:43.349Z,12.90
2023-04-13T11:35:14.035Z,12.80
2023-04-13T11:37:44.018Z,12.80
2023-04-13T11:40:16.823Z,12.80
2023-04-13T11:42:47.392Z,12.70
2023-04-13T11:45:18.521Z,12.50
2023-04-13T11:47:51.114Z,12.50
2023-04-13T11:50:19.939Z,12.50
2023-04-13T11:52:50.380Z,12.40
2023-04-13T11:55:23.598Z,12.50
2023-04-13T11:57:53.450Z,12.50
2023-04-13T12:00:26.172Z,12.40
2023-04-13T12:05:31.261Z,12.20
2023-04-13T12:08:00.832Z,12.30
2023-04-13T12:10:39.107Z,12.60
2023-04-13T12:17:34.880Z,13.10
2023-04-13T12:20:04.657Z,13.20
2023-04-13T12:22:52.261Z,13.10
2023-04-13T12:25:25.916Z,13.20
2023-04-13T12:27:55.019Z,13.00
2023-04-13T12:30:24.414Z,13.20
2023-04-13T12:32:53.757Z,13.40
2023-04-13T12:35:23.731Z,13.30
2023-04-13T12:37:52.564Z,13.20
2023-04-13T12:40:20.840Z,13.10
2023-04-13T12:42:50.029Z,12.90
2023-04-13T12:45:18.340Z,12.90
2023-04-13T12:47:46.547Z,12.90
2023-04-13T12:50:14.792Z,13.00
2023-04-13T12:52:45.282Z,12.70
2023-04-13T12:55:13.493Z,12.60
2023-04-13T12:57:41.695Z,12.70
2023-04-13T13:00:12.637Z,12.70
2023-04-13T13:02:40.869Z,12.80
2023-04-13T13:05:09.889Z,12.80
2023-04-13T13:07:37.971Z,13.00
2023-04-13T13:10:25.772Z,13.10
2023-04-13T13:12:57.211Z,13.20
2023-04-13T13:15:25.486Z,13.10
2023-04-13T13:17:53.656Z,13.00
2023-04-13T13:20:21.920Z,13.10
2023-04-13T13:22:50.007Z,12.80
2023-04-13T13:25:19.621Z,12.80
2023-04-13T13:30:19.045Z,13.00
2023-04-13T13:32:47.203Z,13.10
2023-04-13T13:35:16.768Z,13.20
2023-04-13T13:37:44.861Z,13.30
2023-04-13T13:40:13.938Z,13.30
2023-04-13T13:42:51.926Z,13.50
2023-04-13T13:45:21.876Z,13.50
2023-04-13T13:47:53.820Z,13.60
2023-04-13T13:50:22.391Z,13.70
2023-04-13T13:53:02.932Z,13.60
2023-04-13T13:55:32.373Z,13.40
2023-04-13T13:58:02.078Z,13.40
2023-04-13T14:00:30.254Z,13.50
2023-04-13T14:03:01.826Z,13.60
2023-04-13T14:05:30.136Z,13.50
2023-04-13T14:07:58.294Z,13.30
2023-04-13T14:10:26.440Z,13.20
2023-04-13T14:12:55.720Z,13.00
2023-04-13T14:15:25.332Z,13.00
2023-04-13T14:18:06.601Z,12.90
2023-04-13T14:20:40.195Z,13.00
2023-04-13T14:23:09.701Z,13.00
2023-04-13T14:25:38.908Z,13.00
2023-04-13T14:28:09.327Z,13.00
2023-04-13T14:30:40.007Z,13.00
2023-04-13T14:33:08.605Z,13.10
2023-04-13T14:35:38.764Z,13.20
2023-04-13T14:38:08.281Z,13.30
2023-04-13T14:40:36.594Z,13.50
2023-04-13T14:43:04.674Z,13.40
2023-04-13T14:45:32.781Z,13.30
2023-04-13T14:48:02.475Z,13.30
2023-04-13T14:50:31.128Z,13.30
2023-04-13T14:52:59.352Z,13.20
2023-04-13T14:55:27.690Z,13.20
2023-04-13T14:57:58.307Z,13.20
2023-04-13T15:00:38.845Z,13.20
2023-04-13T15:03:09.383Z,13.30
2023-04-13T15:05:39.234Z,13.20
2023-04-13T15:08:08.615Z,13.20
2023-04-13T15:10:37.113Z,13.20
2023-04-13T15:13:07.160Z,13.20
2023-04-13T15:15:36.525Z,13.10
2023-04-13T15:18:05.665Z,13.10
2023-04-13T15:20:35.503Z,13.10
2023-04-13T15:23:03.581Z,13.10
2023-04-13T15:25:31.638Z,13.00
2023-04-13T15:28:00.187Z,13.00
2023-04-13T15:30:30.420Z,12.90
2023-04-13T15:33:02.322Z,12.90
2023-04-13T15:35:31.620Z,13.00
2023-04-13T15:38:02.269Z,13.10
2023-04-13T15:40:32.780Z,13.00
2023-04-13T15:43:00.873Z,12.90
2023-04-13T15:49:19.587Z,12.90
2023-04-13T15:51:47.740Z,12.90
2023-04-13T15:54:17.205Z,12.90
2023-04-13T15:56:45.457Z,12.90
2023-04-13T15:59:13.723Z,12.80
2023-04-13T16:01:49.141Z,12.80
2023-04-13T16:04:17.507Z,12.80
2023-04-13T16:06:46.026Z,12.70
2023-04-13T16:09:14.260Z,12.60
2023-04-13T16:11:45.410Z,12.60
2023-04-13T16:14:13.492Z,12.50
2023-04-13T16:16:46.783Z,12.40
2023-04-13T16:19:18.665Z,12.30
2023-04-13T16:21:47.295Z,12.30
2023-04-13T16:24:17.158Z,12.20
2023-04-13T16:26:46.598Z,12.20
2023-04-13T16:29:14.986Z,12.30
2023-04-13T16:31:44.917Z,12.20
2023-04-13T16:34:25.712Z,12.20
2023-04-13T16:36:54.488Z,12.20
2023-04-13T16:39:22.627Z,12.10
2023-04-13T16:41:52.073Z,12.10
2023-04-13T16:44:20.243Z,12.00
2023-04-13T16:46:48.340Z,11.90
2023-04-13T16:49:16.816Z,12.00
2023-04-13T16:51:44.902Z,12.00
2023-04-13T16:54:14.014Z,11.90
2023-04-13T16:56:42.227Z,11.90
2023-04-13T16:59:11.731Z,11.90
2023-04-13T17:01:40.009Z,11.90
2023-04-13T17:04:08.370Z,11.90
2023-04-13T17:11:15.357Z,11.70
2023-04-13T17:13:43.514Z,11.70
2023-04-13T17:16:13.014Z,11.60
2023-04-13T17:18:41.188Z,11.60
2023-04-13T17:21:09.526Z,11.60
2023-04-13T17:23:37.681Z,11.50
2023-04-13T17:26:06.181Z,11.50
2023-04-13T17:28:37.383Z,11.50
2023-04-13T17:31:05.915Z,11.40
2023-04-13T17:33:35.397Z,11.30
2023-04-13T17:36:03.590Z,11.30
2023-04-13T17:38:31.677Z,11.20
2023-04-13T17:40:59.758Z,11.20
2023-04-13T17:43:27.855Z,11.10
2023-04-13T17:45:56.134Z,11.00
2023-04-13T17:48:24.250Z,11.00
2023-04-13T17:50:53.719Z,10.90
2023-04-13T17:53:21.795Z,10.90
2023-04-13T17:55:49.924Z,10.80
2023-04-13T17:58:18.050Z,10.70
2023-04-13T18:00:46.258Z,10.70
2023-04-13T18:03:17.269Z,10.60
2023-04-13T18:05:45.683Z,10.50
2023-04-13T18:08:15.166Z,10.40
2023-04-13T18:10:47.284Z,10.30
2023-04-13T18:13:15.762Z,10.30
2023-04-13T18:15:48.277Z,10.10
2023-04-13T18:18:17.752Z,10.00
2023-04-13T18:20:47.745Z,9.80
2023-04-13T18:23:17.268Z,9.80
2023-04-13T18:25:54.831Z,9.70
2023-04-13T18:28:29.492Z,9.60
2023-04-13T18:31:02.386Z,9.50
2023-04-13T18:33:31.820Z,9.40
2023-04-13T18:36:02.275Z,9.30
2023-04-13T18:38:32.938Z,9.20
2023-04-13T18:41:01.054Z,9.10
2023-04-13T18:43:29.526Z,9.10
2023-04-13T18:45:57.734Z,9.00
2023-04-13T18:48:27.680Z,8.90
2023-04-13T18:50:55.853Z,8.90
2023-04-13T18:53:24.007Z,8.80
2023-04-13T18:55:54.107Z,8.70
2023-04-13T18:58:22.408Z,8.60
2023-04-13T19:00:50.584Z,8.60
2023-04-13T19:03:28.658Z,8.50
2023-04-13T19:05:59.667Z,8.40
2023-04-13T19:08:35.462Z,8.40
2023-04-13T19:11:05.683Z,8.40
2023-04-13T19:13:33.823Z,8.40
2023-04-13T19:16:07.800Z,8.40
2023-04-13T19:18:36.041Z,8.50
2023-04-13T19:21:08.381Z,8.40
2023-04-13T19:23:38.932Z,8.40
2023-04-13T19:26:12.622Z,8.30
2023-04-13T19:28:48.365Z,8.30
2023-04-13T19:31:16.976Z,8.30
2023-04-13T19:33:46.160Z,8.20
2023-04-13T19:36:16.160Z,8.10
2023-04-13T19:38:45.281Z,8.10
2023-04-13T19:41:17.062Z,8.00
2023-04-13T19:43:45.973Z,8.00
2023-04-13T19:46:14.088Z,7.90
2023-04-13T19:48:48.209Z,7.90
2023-04-13T19:51:16.336Z,7.80
2023-04-13T19:53:44.457Z,7.80
2023-04-13T19:56:13.988Z,7.80
2023-04-13T19:58:42.039Z,7.80
2023-04-13T20:01:13.562Z,7.80
2023-04-13T20:03:42.098Z,7.90
2023-04-13T20:06:10.738Z,7.90
2023-04-13T20:08:38.967Z,8.00
2023-04-13T20:11:07.361Z,8.30
2023-04-13T20:13:36.859Z,8.50
2023-04-13T20:16:05.437Z,8.60
2023-04-13T20:18:33.717Z,8.50
2023-04-13T20:25:20.370Z,8.40
2023-04-13T20:27:48.463Z,8.30
2023-04-13T20:30:18.187Z,8.30
2023-04-13T20:32:46.440Z,8.20
2023-04-13T20:35:15.016Z,8.10
2023-04-13T20:37:43.548Z,8.10
2023-04-13T20:40:11.993Z,8.10
2023-04-13T20:42:44.330Z,8.00
2023-04-13T20:45:15.599Z,7.90
2023-04-13T20:47:45.755Z,7.70
2023-04-13T20:50:15.577Z,7.60
2023-04-13T20:56:34.875Z,7.40
2023-04-13T20:59:05.406Z,7.20
2023-04-13T21:01:38.703Z,7.00
2023-04-13T21:04:08.615Z,7.00
2023-04-13T21:06:40.806Z,6.90
2023-04-13T21:09:13.208Z,6.80
2023-04-13T21:11:44.745Z,6.90
2023-04-13T21:14:13.070Z,6.80
2023-04-13T21:16:41.558Z,6.70
2023-04-13T21:19:11.338Z,6.80
2023-04-13T21:21:39.717Z,6.80
2023-04-13T21:24:11.408Z,6.70
2023-04-13T21:26:44.697Z,6.60
2023-04-13T21:29:14.045Z,6.60
2023-04-13T21:31:42.233Z,6.60
2023-04-13T21:34:11.827Z,6.50
2023-04-13T21:39:11.021Z,6.40
2023-04-13T21:41:42.200Z,6.30
2023-04-13T21:44:26.029Z,6.30
2023-04-13T21:46:59.480Z,6.20
2023-04-13T21:49:28.995Z,6.10
2023-04-13T21:51:57.135Z,6.10
2023-04-13T21:54:34.457Z,6.00
2023-04-13T21:57:02.757Z,6.00
2023-04-13T21:59:30.933Z,5.90
2023-04-13T22:01:59.141Z,5.90
2023-04-13T22:04:28.862Z,5.90
2023-04-13T22:06:57.262Z,5.80
2023-04-13T22:09:25.364Z,5.80
2023-04-13T22:11:53.475Z,5.70
2023-04-13T22:14:24.931Z,5.70
2023-04-13T22:16:53.158Z,5.60
2023-04-13T22:19:21.287Z,5.60
2023-04-13T22:21:53.310Z,5.60
2023-04-13T22:24:21.355Z,5.50
2023-04-13T22:26:49.430Z,5.60
2023-04-13T22:29:17.518Z,5.60
2023-04-13T22:31:45.911Z,5.50
2023-04-13T22:34:14.210Z,5.50
2023-04-13T22:36:42.247Z,5.50
2023-04-13T22:39:11.679Z,5.50
2023-04-13T22:41:39.923Z,5.40
2023-04-13T22:44:08.011Z,5.40
2023-04-13T22:46:36.641Z,5.40
2023-04-13T22:49:04.936Z,5.40
2023-04-13T22:51:39.099Z,5.40
2023-04-13T22:54:07.272Z,5.40
2023-04-13T22:56:36.746Z,5.30
2023-04-13T22:59:04.840Z,5.30
2023-04-13T23:01:33.012Z,5.30
2023-04-13T23:04:01.323Z,5.30
2023-04-13T23:06:29.530Z,5.20
2023-04-13T23:08:57.796Z,5.10
2023-04-13T23:11:25.968Z,5.10
2023-04-13T23:13:55.502Z,5.00
2023-04-13T23:16:23.659Z,5.00
2023-04-13T23:18:51.747Z,5.00
2023-04-13T23:21:21.476Z,5.00
2023-04-13T23:23:49.527Z,4.90
2023-04-13T23:26:17.727Z,4.90
2023-04-13T23:28:47.553Z,4.90
2023-04-13T23:31:17.115Z,4.90
2023-04-13T23:33:45.220Z,5.00
2023-04-13T23:36:13.647Z,4.90
2023-04-13T23:38:41.759Z,4.90
2023-04-13T23:41:09.852Z,4.90
2023-04-13T23:43:38.027Z,4.80
2023-04-13T23:46:06.257Z,4.70
2023-04-13T23:48:35.893Z,4.70
2023-04-13T23:51:04.015Z,4.70
2023-04-13T23:53:32.285Z,4.60
2023-04-13T23:56:00.391Z,4.60
2023-04-13T23:58:28.457Z,4.50
